»·PEaware :: N32FD KBUR-KLAS

N32FD :: KBUR-KLAS

FLIGHT INFORMATION

Flight Status: Arrived
Operator: Privately registered:
United States
More flights under this callsign
Pilot: Joe C. (32102)
Aircraft: AERMACCHI WARRIOR
(F260)
More flights by this aircraft type
Origin: KBUR Bob Hope-Burbank
United States
Destination: KLAS McCarran Intl
United States
More flights between these airports :: More routes between these airports
Route: VNY3 DAG CRESO4
File this flight plan on PilotEdge
Remarks:
Altitude:
(Current/Filed)
13,000ft
Speed:
(Current/Filed)
153kts
Departed: 07-Jan-21 02:16 PM
Arrived: 07-Jan-21 03:49 PM
Distance/Time
Traveled:
194nm/1:33
Distance/Time
To Go:
Arrived

Flight Plot

Page will automatically refresh every two minutes.

Flight plan parsing failed; only flown route is shown


Map Options




Map Legend


Flown Route
Filed Route
Departure Airport
Arrival Airport
Navaid (VOR, NDB)
Fix

Horizontal Profiles

Position Reports

Time Latitude Longitude Heading Altitude Ground
Speed
07-Jan-21 14:00 34.200314 -118.359487 352 779ft 0kts
07-Jan-21 14:01 34.200314 -118.359487 352 779ft 0kts
07-Jan-21 14:02 34.200314 -118.359487 352 779ft 0kts
07-Jan-21 14:03 34.200314 -118.359487 352 779ft 0kts
07-Jan-21 14:04 34.200314 -118.359487 352 779ft 0kts
07-Jan-21 14:05 34.200314 -118.359487 352 779ft 0kts
07-Jan-21 14:06 34.200314 -118.359487 352 779ft 0kts
07-Jan-21 14:07 34.200314 -118.359487 352 779ft 0kts
07-Jan-21 14:08 34.200314 -118.359487 352 779ft 0kts
07-Jan-21 14:09 34.200314 -118.359487 352 779ft 0kts
07-Jan-21 14:10 34.200209 -118.358284 347 779ft 16kts
07-Jan-21 14:11 34.206245 -118.359915 346 779ft 24kts
07-Jan-21 14:12 34.211891 -118.361404 17 779ft 0kts
07-Jan-21 14:13 34.211891 -118.361404 17 779ft 0kts
07-Jan-21 14:14 34.211384 -118.360199 166 779ft 32kts
07-Jan-21 14:15 34.189163 -118.366297 226 1841ft 111kts
07-Jan-21 14:16 34.166384 -118.395450 227 2918ft 128kts
07-Jan-21 14:17 34.141974 -118.425941 226 4091ft 125kts
07-Jan-21 14:18 34.137706 -118.465513 272 5208ft 120kts
07-Jan-21 14:19 34.138809 -118.507352 272 6394ft 127kts
07-Jan-21 14:20 34.152187 -118.541259 338 7574ft 124kts
07-Jan-21 14:21 34.184186 -118.556110 340 8654ft 125kts
07-Jan-21 14:22 34.217195 -118.570807 338 9581ft 128kts
07-Jan-21 14:23 34.250036 -118.586908 335 10482ft 126kts
07-Jan-21 14:24 34.282226 -118.602767 334 11341ft 124kts
07-Jan-21 14:25 34.312620 -118.598622 48 12126ft 135kts
07-Jan-21 14:26 34.335483 -118.562640 47 12872ft 135kts
07-Jan-21 14:27 34.357424 -118.519836 57 12995ft 164kts
07-Jan-21 14:28 34.378549 -118.473550 57 12988ft 159kts
07-Jan-21 14:29 34.402973 -118.429454 49 12991ft 157kts
07-Jan-21 14:30 34.428699 -118.387752 48 12991ft 153kts
07-Jan-21 14:31 34.455140 -118.345634 48 12993ft 160kts
07-Jan-21 14:32 34.482587 -118.301923 48 12992ft 164kts
07-Jan-21 14:33 34.510281 -118.257762 48 12990ft 165kts
07-Jan-21 14:34 34.538125 -118.213248 48 12991ft 165kts
07-Jan-21 14:35 34.566421 -118.168064 48 12881ft 168kts
07-Jan-21 14:36 34.594435 -118.123162 48 12881ft 165kts
07-Jan-21 14:37 34.622209 -118.078690 48 12882ft 165kts
07-Jan-21 14:38 34.639176 -118.027790 80 12882ft 169kts
07-Jan-21 14:39 34.644994 -117.971266 82 12882ft 169kts
07-Jan-21 14:40 34.648764 -117.914029 83 12882ft 170kts
07-Jan-21 14:41 34.654188 -117.856821 80 12883ft 170kts
07-Jan-21 14:42 34.660338 -117.799789 80 12882ft 170kts
07-Jan-21 14:43 34.670161 -117.744152 62 12884ft 167kts
07-Jan-21 14:45 34.686356 -117.690858 69 12883ft 168kts
07-Jan-21 14:46 34.700050 -117.636441 69 12883ft 168kts
07-Jan-21 14:47 34.713906 -117.581837 69 12882ft 169kts
07-Jan-21 14:48 34.727667 -117.527398 69 12886ft 168kts
07-Jan-21 14:49 34.741422 -117.472755 69 12897ft 168kts
07-Jan-21 14:50 34.755143 -117.418237 69 12907ft 168kts
07-Jan-21 14:51 34.768823 -117.363757 69 12915ft 168kts
07-Jan-21 14:52 34.782272 -117.309059 70 12922ft 168kts
07-Jan-21 14:53 34.795805 -117.254565 70 12931ft 168kts
07-Jan-21 14:54 34.809383 -117.200177 70 12942ft 168kts
07-Jan-21 14:55 34.822867 -117.145969 70 12949ft 167kts
07-Jan-21 14:56 34.836371 -117.091619 70 12962ft 167kts
07-Jan-21 14:57 34.849770 -117.037473 70 12976ft 167kts
07-Jan-21 14:57 34.860997 -116.992139 70 12988ft 167kts
07-Jan-21 14:59 34.876713 -116.928523 70 12994ft 168kts
07-Jan-21 15:00 34.890166 -116.873851 70 12991ft 168kts
07-Jan-21 15:01 34.903642 -116.819087 70 12992ft 168kts
07-Jan-21 15:02 34.917044 -116.764424 70 12992ft 168kts
07-Jan-21 15:02 34.928201 -116.718845 69 12992ft 168kts
07-Jan-21 15:03 34.941637 -116.663890 69 12993ft 169kts
07-Jan-21 15:05 34.957277 -116.599724 70 12992ft 169kts
07-Jan-21 15:06 34.973877 -116.546572 56 12992ft 167kts
07-Jan-21 15:06 34.992523 -116.505274 56 12993ft 167kts
07-Jan-21 15:07 35.014749 -116.455362 57 12992ft 167kts
07-Jan-21 15:08 35.036299 -116.405107 58 12993ft 167kts
07-Jan-21 15:09 35.057783 -116.354552 58 12993ft 167kts
07-Jan-21 15:10 35.078769 -116.304043 59 12991ft 167kts
07-Jan-21 15:11 35.100033 -116.253572 58 12990ft 166kts
07-Jan-21 15:12 35.121701 -116.203436 58 12992ft 167kts
07-Jan-21 15:13 35.143040 -116.153026 58 12992ft 167kts
07-Jan-21 15:14 35.164373 -116.102441 58 12986ft 168kts
07-Jan-21 15:15 35.185708 -116.051767 58 12980ft 167kts
07-Jan-21 15:16 35.206946 -116.001189 58 12974ft 167kts
07-Jan-21 15:17 35.228224 -115.950469 58 12970ft 167kts
07-Jan-21 15:18 35.249548 -115.899600 58 12965ft 168kts
07-Jan-21 15:19 35.271118 -115.848082 58 12746ft 179kts
07-Jan-21 15:20 35.294728 -115.791548 59 12070ft 190kts
07-Jan-21 15:21 35.328140 -115.742696 40 11377ft 187kts
07-Jan-21 15:22 35.365838 -115.700121 38 10681ft 182kts
07-Jan-21 15:23 35.404464 -115.661380 36 10002ft 176kts
07-Jan-21 15:24 35.438469 -115.624055 42 9974ft 156kts
07-Jan-21 15:25 35.467735 -115.585790 45 9982ft 153kts
07-Jan-21 15:26 35.496846 -115.546548 45 9989ft 161kts
07-Jan-21 15:27 35.527613 -115.504904 45 9992ft 166kts
07-Jan-21 15:28 35.558665 -115.462833 45 9990ft 167kts
07-Jan-21 15:29 35.589753 -115.420603 45 9992ft 167kts
07-Jan-21 15:30 35.620995 -115.378145 45 9992ft 167kts
07-Jan-21 15:31 35.652004 -115.335660 46 9991ft 167kts
07-Jan-21 15:32 35.682984 -115.293012 45 9991ft 167kts
07-Jan-21 15:33 35.714104 -115.250522 45 9991ft 166kts
07-Jan-21 15:34 35.755717 -115.222838 21 9470ft 179kts
07-Jan-21 15:35 35.802118 -115.200006 21 8770ft 179kts
07-Jan-21 15:36 35.848392 -115.177549 21 8065ft 179kts
07-Jan-21 15:37 35.892099 -115.156361 21 7989ft 163kts
07-Jan-21 15:38 35.933822 -115.136072 21 7991ft 160kts
07-Jan-21 15:39 35.975398 -115.115827 21 7991ft 160kts
07-Jan-21 15:40 36.017020 -115.095611 21 7991ft 161kts
07-Jan-21 15:41 36.058856 -115.075362 21 7992ft 161kts
07-Jan-21 15:42 36.100481 -115.055191 21 7991ft 160kts
07-Jan-21 15:43 36.142538 -115.034816 21 7791ft 170kts
07-Jan-21 15:44 36.173770 -115.067947 266 6632ft 203kts
07-Jan-21 15:45 36.149082 -115.128916 207 3869ft 201kts
07-Jan-21 15:46 36.102484 -115.155048 206 2973ft 159kts
07-Jan-21 15:47 36.105990 -115.153944 178 2348ft 90kts
07-Jan-21 15:48 36.088699 -115.162701 208 2125ft 35kts
07-Jan-21 15:49 36.083810 -115.166616 233 2150ft 0kts
07-Jan-21 15:50 36.083313 -115.168188 24 2156ft 17kts
07-Jan-21 15:51 36.089762 -115.164503 24 2126ft 24kts
07-Jan-21 15:52 36.092605 -115.163786 26 2118ft 0kts

Navigation Log

Ident Type
Flight plan parsing failed, navigation log unavailable